CheckWX is a tool to help pilots better visualize weather data.  It is not intended as a substitute for an official pre-flight weather briefing.

05:59:55 UTC

HKML METAR
Malindi Airport
Malindi, Kenya
Current

60 mins ago

HKML 050500Z 21006KT 9999 BKN019TCU 26/23 Q1014
Observed
Jul-5 @ 05:00 UTC
Wind
  • 210° at 6 KTS
Visibility
10,000+ meters
Flight Rules
MVFR
Cloud Levels
  • Broken at 1,900' AGL
Temperature
26°C / 79°F
Dewpoint
23°C / 73°F
Humidity
84%
Altimeter
29.94" Hg
Pressure
1013.92 hPa
Previous

2 hours ago

HKML 050400Z 18008KT 9999 SCT019TCU 25/22 Q1013
Observed
Jul-5 @ 04:00 UTC
Wind
  • 180° at 8 KTS
Visibility
10,000+ meters
Flight Rules
VFR
Cloud Levels
  • Scattered at 1,900' AGL
Temperature
25°C / 77°F
Dewpoint
22°C / 72°F
Humidity
83%
Altimeter
29.91" Hg
Pressure
1012.92 hPa
Previous

12 hours ago

HKML 041800Z 24010KT 9999 SCT020 BKN0080 25/22 Q1015
Observed
Jul-4 @ 18:00 UTC
Wind
  • 240° at 10 KTS
Visibility
10,000+ meters
Flight Rules
VFR
Cloud Levels
  • Scattered at 2,000' AGL
Temperature
25°C / 77°F
Dewpoint
22°C / 72°F
Humidity
83%
Altimeter
29.97" Hg
Pressure
1014.92 hPa